sensor_id;sensor_type;location;lat;lon;timestamp;P1;durP1;ratioP1;P2;durP2;ratioP2
3149;SDS011;32503;47.748;8.960;2023-10-09T00:01:41;5.93;;;5.17;;
3149;SDS011;32503;47.748;8.960;2023-10-09T00:04:11;10.30;;;5.67;;
3149;SDS011;32503;47.748;8.960;2023-10-09T00:06:42;5.77;;;5.23;;
3149;SDS011;32503;47.748;8.960;2023-10-09T00:09:10;5.90;;;5.40;;
3149;SDS011;32503;47.748;8.960;2023-10-09T00:11:51;6.10;;;5.50;;
3149;SDS011;32503;47.748;8.960;2023-10-09T00:14:22;6.13;;;5.73;;
3149;SDS011;32503;47.748;8.960;2023-10-09T00:16:50;8.37;;;6.07;;
3149;SDS011;32503;47.748;8.960;2023-10-09T00:19:21;7.23;;;5.97;;
3149;SDS011;32503;47.748;8.960;2023-10-09T00:21:56;6.43;;;5.77;;
3149;SDS011;32503;47.748;8.960;2023-10-09T00:24:29;5.20;;;4.70;;
3149;SDS011;32503;47.748;8.960;2023-10-09T00:26:58;5.60;;;4.77;;
3149;SDS011;32503;47.748;8.960;2023-10-09T00:29:37;9.97;;;6.77;;
3149;SDS011;32503;47.748;8.960;2023-10-09T00:32:09;6.67;;;6.00;;
3149;SDS011;32503;47.748;8.960;2023-10-09T00:34:47;6.50;;;5.43;;
3149;SDS011;32503;47.748;8.960;2023-10-09T00:37:17;8.70;;;7.80;;
3149;SDS011;32503;47.748;8.960;2023-10-09T00:39:49;5.50;;;5.03;;
3149;SDS011;32503;47.748;8.960;2023-10-09T00:42:22;12.13;;;5.77;;
3149;SDS011;32503;47.748;8.960;2023-10-09T00:44:54;9.90;;;5.50;;
3149;SDS011;32503;47.748;8.960;2023-10-09T00:47:22;5.57;;;5.17;;
3149;SDS011;32503;47.748;8.960;2023-10-09T00:49:52;6.10;;;4.40;;
3149;SDS011;32503;47.748;8.960;2023-10-09T00:52:26;5.87;;;5.20;;
3149;SDS011;32503;47.748;8.960;2023-10-09T00:55:02;5.60;;;5.10;;
3149;SDS011;32503;47.748;8.960;2023-10-09T00:57:39;5.37;;;4.90;;
3149;SDS011;32503;47.748;8.960;2023-10-09T01:00:15;7.17;;;4.60;;
3149;SDS011;32503;47.748;8.960;2023-10-09T01:02:58;6.73;;;4.43;;
3149;SDS011;32503;47.748;8.960;2023-10-09T01:05:44;5.60;;;5.00;;
3149;SDS011;32503;47.748;8.960;2023-10-09T01:08:23;5.37;;;4.80;;
3149;SDS011;32503;47.748;8.960;2023-10-09T01:10:55;8.40;;;5.00;;
3149;SDS011;32503;47.748;8.960;2023-10-09T01:13:24;6.57;;;4.70;;
3149;SDS011;32503;47.748;8.960;2023-10-09T01:16:04;6.10;;;5.50;;
3149;SDS011;32503;47.748;8.960;2023-10-09T01:18:34;4.77;;;4.47;;
3149;SDS011;32503;47.748;8.960;2023-10-09T01:21:06;5.33;;;4.80;;
3149;SDS011;32503;47.748;8.960;2023-10-09T01:23:34;5.67;;;5.13;;
3149;SDS011;32503;47.748;8.960;2023-10-09T01:26:23;5.67;;;4.80;;
3149;SDS011;32503;47.748;8.960;2023-10-09T01:28:51;5.30;;;4.90;;
3149;SDS011;32503;47.748;8.960;2023-10-09T01:31:23;5.57;;;5.17;;
3149;SDS011;32503;47.748;8.960;2023-10-09T01:33:51;5.63;;;4.77;;
3149;SDS011;32503;47.748;8.960;2023-10-09T01:36:22;6.30;;;5.03;;
3149;SDS011;32503;47.748;8.960;2023-10-09T01:38:58;7.43;;;5.37;;
3149;SDS011;32503;47.748;8.960;2023-10-09T01:41:27;11.53;;;5.10;;
3149;SDS011;32503;47.748;8.960;2023-10-09T01:43:59;5.80;;;5.20;;
3149;SDS011;32503;47.748;8.960;2023-10-09T01:46:35;4.87;;;4.37;;
3149;SDS011;32503;47.748;8.960;2023-10-09T01:49:02;8.10;;;4.90;;
3149;SDS011;32503;47.748;8.960;2023-10-09T01:51:42;5.07;;;4.40;;
3149;SDS011;32503;47.748;8.960;2023-10-09T01:54:10;7.93;;;5.60;;
3149;SDS011;32503;47.748;8.960;2023-10-09T01:56:57;4.90;;;4.50;;
3149;SDS011;32503;47.748;8.960;2023-10-09T01:59:30;6.43;;;5.73;;
3149;SDS011;32503;47.748;8.960;2023-10-09T02:02:01;5.17;;;4.67;;
3149;SDS011;32503;47.748;8.960;2023-10-09T02:04:37;6.93;;;4.73;;
3149;SDS011;32503;47.748;8.960;2023-10-09T02:07:05;6.13;;;4.43;;
3149;SDS011;32503;47.748;8.960;2023-10-09T02:09:35;6.47;;;4.73;;
3149;SDS011;32503;47.748;8.960;2023-10-09T02:12:10;7.90;;;5.27;;
3149;SDS011;32503;47.748;8.960;2023-10-09T02:14:38;7.67;;;5.80;;
3149;SDS011;32503;47.748;8.960;2023-10-09T02:17:07;5.03;;;4.50;;
3149;SDS011;32503;47.748;8.960;2023-10-09T02:19:37;6.27;;;5.17;;
3149;SDS011;32503;47.748;8.960;2023-10-09T02:22:07;5.60;;;5.10;;
3149;SDS011;32503;47.748;8.960;2023-10-09T02:24:40;5.73;;;5.20;;
3149;SDS011;32503;47.748;8.960;2023-10-09T02:27:15;7.67;;;5.13;;
3149;SDS011;32503;47.748;8.960;2023-10-09T02:30:05;5.90;;;5.40;;
3149;SDS011;32503;47.748;8.960;2023-10-09T02:32:45;4.90;;;4.60;;
3149;SDS011;32503;47.748;8.960;2023-10-09T02:35:17;4.93;;;4.53;;
3149;SDS011;32503;47.748;8.960;2023-10-09T02:37:56;5.40;;;4.97;;
3149;SDS011;32503;47.748;8.960;2023-10-09T02:40:27;5.00;;;4.60;;
3149;SDS011;32503;47.748;8.960;2023-10-09T02:42:58;7.70;;;5.07;;
3149;SDS011;32503;47.748;8.960;2023-10-09T02:45:25;6.00;;;4.97;;
3149;SDS011;32503;47.748;8.960;2023-10-09T02:47:59;6.63;;;4.73;;
3149;SDS011;32503;47.748;8.960;2023-10-09T02:50:35;5.20;;;4.20;;
3149;SDS011;32503;47.748;8.960;2023-10-09T02:53:04;4.80;;;4.33;;
3149;SDS011;32503;47.748;8.960;2023-10-09T02:55:36;4.77;;;4.30;;
3149;SDS011;32503;47.748;8.960;2023-10-09T02:58:04;4.37;;;4.07;;
3149;SDS011;32503;47.748;8.960;2023-10-09T03:00:33;5.37;;;4.77;;
3149;SDS011;32503;47.748;8.960;2023-10-09T03:03:02;4.17;;;3.87;;
3149;SDS011;32503;47.748;8.960;2023-10-09T03:05:32;5.73;;;5.10;;
3149;SDS011;32503;47.748;8.960;2023-10-09T03:08:07;4.33;;;3.77;;
3149;SDS011;32503;47.748;8.960;2023-10-09T03:10:38;4.73;;;4.33;;
3149;SDS011;32503;47.748;8.960;2023-10-09T03:13:05;5.90;;;4.80;;
3149;SDS011;32503;47.748;8.960;2023-10-09T03:15:32;4.77;;;4.30;;
3149;SDS011;32503;47.748;8.960;2023-10-09T03:18:01;4.73;;;4.20;;
3149;SDS011;32503;47.748;8.960;2023-10-09T03:20:29;5.23;;;4.83;;
3149;SDS011;32503;47.748;8.960;2023-10-09T03:22:57;5.60;;;5.20;;
3149;SDS011;32503;47.748;8.960;2023-10-09T03:25:26;5.43;;;4.97;;
3149;SDS011;32503;47.748;8.960;2023-10-09T03:27:55;5.30;;;4.80;;
3149;SDS011;32503;47.748;8.960;2023-10-09T03:30:23;7.87;;;4.83;;
3149;SDS011;32503;47.748;8.960;2023-10-09T03:32:51;4.97;;;4.50;;
3149;SDS011;32503;47.748;8.960;2023-10-09T03:35:19;5.70;;;5.00;;
3149;SDS011;32503;47.748;8.960;2023-10-09T03:37:54;4.20;;;3.90;;
3149;SDS011;32503;47.748;8.960;2023-10-09T03:40:25;4.93;;;4.63;;
3149;SDS011;32503;47.748;8.960;2023-10-09T03:42:54;5.17;;;4.33;;
3149;SDS011;32503;47.748;8.960;2023-10-09T03:45:21;5.13;;;4.63;;
3149;SDS011;32503;47.748;8.960;2023-10-09T03:47:55;6.00;;;3.70;;
3149;SDS011;32503;47.748;8.960;2023-10-09T03:50:34;5.63;;;5.07;;
3149;SDS011;32503;47.748;8.960;2023-10-09T03:53:03;3.97;;;3.70;;
3149;SDS011;32503;47.748;8.960;2023-10-09T03:55:33;4.00;;;3.60;;
3149;SDS011;32503;47.748;8.960;2023-10-09T03:58:04;4.67;;;4.17;;
3149;SDS011;32503;47.748;8.960;2023-10-09T04:00:32;3.80;;;3.50;;
3149;SDS011;32503;47.748;8.960;2023-10-09T04:03:09;5.43;;;4.63;;
3149;SDS011;32503;47.748;8.960;2023-10-09T04:05:39;4.07;;;3.77;;
3149;SDS011;32503;47.748;8.960;2023-10-09T04:08:08;6.00;;;5.03;;
3149;SDS011;32503;47.748;8.960;2023-10-09T04:10:44;5.47;;;4.90;;
3149;SDS011;32503;47.748;8.960;2023-10-09T04:13:19;4.60;;;4.20;;
3149;SDS011;32503;47.748;8.960;2023-10-09T04:15:51;5.40;;;4.40;;
3149;SDS011;32503;47.748;8.960;2023-10-09T04:18:19;7.93;;;5.03;;
3149;SDS011;32503;47.748;8.960;2023-10-09T04:20:53;7.77;;;4.63;;
3149;SDS011;32503;47.748;8.960;2023-10-09T04:23:39;5.00;;;4.50;;
3149;SDS011;32503;47.748;8.960;2023-10-09T04:26:23;5.60;;;4.97;;
3149;SDS011;32503;47.748;8.960;2023-10-09T04:28:52;4.83;;;4.53;;
3149;SDS011;32503;47.748;8.960;2023-10-09T04:31:19;5.40;;;4.77;;
3149;SDS011;32503;47.748;8.960;2023-10-09T04:33:52;4.73;;;4.30;;
3149;SDS011;32503;47.748;8.960;2023-10-09T04:36:44;5.80;;;5.33;;
3149;SDS011;32503;47.748;8.960;2023-10-09T04:39:15;6.13;;;5.50;;
3149;SDS011;32503;47.748;8.960;2023-10-09T04:42:00;9.33;;;5.60;;
3149;SDS011;32503;47.748;8.960;2023-10-09T04:45:02;10.63;;;6.00;;
3149;SDS011;32503;47.748;8.960;2023-10-09T04:48:00;9.03;;;6.07;;
3149;SDS011;32503;47.748;8.960;2023-10-09T04:50:32;10.17;;;5.53;;
3149;SDS011;32503;47.748;8.960;2023-10-09T04:53:23;7.03;;;4.73;;
3149;SDS011;32503;47.748;8.960;2023-10-09T04:55:50;9.83;;;7.00;;
3149;SDS011;32503;47.748;8.960;2023-10-09T04:58:29;7.77;;;6.37;;
3149;SDS011;32503;47.748;8.960;2023-10-09T05:00:59;12.47;;;8.43;;
3149;SDS011;32503;47.748;8.960;2023-10-09T05:03:37;8.47;;;6.30;;
3149;SDS011;32503;47.748;8.960;2023-10-09T05:06:09;8.03;;;5.73;;
3149;SDS011;32503;47.748;8.960;2023-10-09T05:08:57;7.73;;;5.60;;
3149;SDS011;32503;47.748;8.960;2023-10-09T05:11:33;8.03;;;5.47;;
3149;SDS011;32503;47.748;8.960;2023-10-09T05:14:18;6.47;;;5.77;;
3149;SDS011;32503;47.748;8.960;2023-10-09T05:17:04;9.83;;;5.57;;
3149;SDS011;32503;47.748;8.960;2023-10-09T05:19:31;7.70;;;5.57;;
3149;SDS011;32503;47.748;8.960;2023-10-09T05:22:21;5.63;;;5.03;;
3149;SDS011;32503;47.748;8.960;2023-10-09T05:25:03;11.40;;;5.67;;
3149;SDS011;32503;47.748;8.960;2023-10-09T05:27:41;7.73;;;5.20;;
3149;SDS011;32503;47.748;8.960;2023-10-09T05:30:11;5.93;;;5.23;;
3149;SDS011;32503;47.748;8.960;2023-10-09T05:32:53;5.03;;;4.70;;
3149;SDS011;32503;47.748;8.960;2023-10-09T05:35:51;5.17;;;4.07;;
3149;SDS011;32503;47.748;8.960;2023-10-09T05:38:31;7.90;;;4.30;;
3149;SDS011;32503;47.748;8.960;2023-10-09T05:41:01;5.77;;;4.37;;
3149;SDS011;32503;47.748;8.960;2023-10-09T05:43:50;4.50;;;4.10;;
3149;SDS011;32503;47.748;8.960;2023-10-09T05:46:34;5.37;;;4.87;;
3149;SDS011;32503;47.748;8.960;2023-10-09T05:49:03;6.37;;;5.77;;
3149;SDS011;32503;47.748;8.960;2023-10-09T05:51:44;4.90;;;4.50;;
3149;SDS011;32503;47.748;8.960;2023-10-09T05:54:18;5.90;;;4.07;;
3149;SDS011;32503;47.748;8.960;2023-10-09T05:57:03;4.90;;;4.23;;
3149;SDS011;32503;47.748;8.960;2023-10-09T05:59:48;6.57;;;5.30;;
3149;SDS011;32503;47.748;8.960;2023-10-09T06:02:32;5.30;;;4.90;;
3149;SDS011;32503;47.748;8.960;2023-10-09T06:05:18;8.20;;;5.30;;
3149;SDS011;32503;47.748;8.960;2023-10-09T06:08:04;5.00;;;4.63;;
3149;SDS011;32503;47.748;8.960;2023-10-09T06:10:32;5.17;;;4.73;;
3149;SDS011;32503;47.748;8.960;2023-10-09T06:13:07;7.10;;;5.37;;
3149;SDS011;32503;47.748;8.960;2023-10-09T06:16:02;6.70;;;4.67;;
3149;SDS011;32503;47.748;8.960;2023-10-09T06:18:44;6.23;;;5.63;;
3149;SDS011;32503;47.748;8.960;2023-10-09T06:21:34;9.20;;;4.87;;
3149;SDS011;32503;47.748;8.960;2023-10-09T06:24:21;7.50;;;6.10;;
3149;SDS011;32503;47.748;8.960;2023-10-09T06:26:51;5.43;;;4.50;;
3149;SDS011;32503;47.748;8.960;2023-10-09T06:29:22;9.30;;;5.90;;
3149;SDS011;32503;47.748;8.960;2023-10-09T06:32:00;5.00;;;4.57;;
3149;SDS011;32503;47.748;8.960;2023-10-09T06:34:59;7.20;;;6.07;;
3149;SDS011;32503;47.748;8.960;2023-10-09T06:37:45;10.60;;;5.80;;
3149;SDS011;32503;47.748;8.960;2023-10-09T06:40:33;12.13;;;6.30;;
3149;SDS011;32503;47.748;8.960;2023-10-09T06:43:20;6.50;;;5.87;;
3149;SDS011;32503;47.748;8.960;2023-10-09T06:45:55;9.30;;;5.37;;
3149;SDS011;32503;47.748;8.960;2023-10-09T06:48:40;6.43;;;5.27;;
3149;SDS011;32503;47.748;8.960;2023-10-09T06:51:10;5.37;;;4.87;;
3149;SDS011;32503;47.748;8.960;2023-10-09T06:54:03;8.40;;;5.20;;
3149;SDS011;32503;47.748;8.960;2023-10-09T06:56:32;6.67;;;4.93;;
3149;SDS011;32503;47.748;8.960;2023-10-09T06:59:13;10.60;;;5.80;;
3149;SDS011;32503;47.748;8.960;2023-10-09T07:01:46;9.90;;;5.53;;
3149;SDS011;32503;47.748;8.960;2023-10-09T07:04:33;5.63;;;5.13;;
3149;SDS011;32503;47.748;8.960;2023-10-09T07:07:12;9.90;;;5.40;;
3149;SDS011;32503;47.748;8.960;2023-10-09T07:09:42;6.87;;;6.00;;
3149;SDS011;32503;47.748;8.960;2023-10-09T07:12:29;6.47;;;4.93;;
3149;SDS011;32503;47.748;8.960;2023-10-09T07:14:58;5.47;;;5.03;;
3149;SDS011;32503;47.748;8.960;2023-10-09T07:17:43;9.67;;;5.97;;
3149;SDS011;32503;47.748;8.960;2023-10-09T07:20:11;8.03;;;5.80;;
3149;SDS011;32503;47.748;8.960;2023-10-09T07:22:39;12.27;;;6.43;;
3149;SDS011;32503;47.748;8.960;2023-10-09T07:25:19;8.10;;;6.70;;
3149;SDS011;32503;47.748;8.960;2023-10-09T07:28:06;13.87;;;6.47;;
3149;SDS011;32503;47.748;8.960;2023-10-09T07:30:54;7.23;;;6.03;;
3149;SDS011;32503;47.748;8.960;2023-10-09T07:33:24;7.93;;;5.13;;
3149;SDS011;32503;47.748;8.960;2023-10-09T07:36:16;7.93;;;6.33;;
3149;SDS011;32503;47.748;8.960;2023-10-09T07:38:54;6.37;;;5.77;;
3149;SDS011;32503;47.748;8.960;2023-10-09T07:41:23;6.30;;;5.80;;
3149;SDS011;32503;47.748;8.960;2023-10-09T07:44:09;9.60;;;6.10;;
3149;SDS011;32503;47.748;8.960;2023-10-09T07:47:00;13.90;;;5.60;;
3149;SDS011;32503;47.748;8.960;2023-10-09T07:49:45;6.17;;;5.00;;
3149;SDS011;32503;47.748;8.960;2023-10-09T07:52:18;7.30;;;5.70;;
3149;SDS011;32503;47.748;8.960;2023-10-09T07:54:48;9.33;;;5.83;;
3149;SDS011;32503;47.748;8.960;2023-10-09T07:57:30;10.37;;;5.23;;
3149;SDS011;32503;47.748;8.960;2023-10-09T08:00:05;6.33;;;4.80;;
3149;SDS011;32503;47.748;8.960;2023-10-09T08:02:53;7.57;;;5.40;;
3149;SDS011;32503;47.748;8.960;2023-10-09T08:05:25;6.00;;;4.90;;
3149;SDS011;32503;47.748;8.960;2023-10-09T08:07:58;8.63;;;5.40;;
3149;SDS011;32503;47.748;8.960;2023-10-09T08:10:44;6.70;;;5.20;;
3149;SDS011;32503;47.748;8.960;2023-10-09T08:13:38;5.60;;;4.90;;
3149;SDS011;32503;47.748;8.960;2023-10-09T08:16:21;8.63;;;4.10;;
3149;SDS011;32503;47.748;8.960;2023-10-09T08:19:01;4.97;;;4.57;;
3149;SDS011;32503;47.748;8.960;2023-10-09T08:21:45;5.13;;;4.20;;
3149;SDS011;32503;47.748;8.960;2023-10-09T08:24:32;5.53;;;4.50;;
3149;SDS011;32503;47.748;8.960;2023-10-09T08:27:06;7.53;;;4.33;;
3149;SDS011;32503;47.748;8.960;2023-10-09T08:29:52;7.43;;;4.33;;
3149;SDS011;32503;47.748;8.960;2023-10-09T08:32:39;6.17;;;4.47;;
3149;SDS011;32503;47.748;8.960;2023-10-09T08:35:07;5.43;;;4.00;;
3149;SDS011;32503;47.748;8.960;2023-10-09T08:37:54;6.90;;;4.27;;
3149;SDS011;32503;47.748;8.960;2023-10-09T08:40:27;5.63;;;4.30;;
3149;SDS011;32503;47.748;8.960;2023-10-09T08:42:58;12.63;;;4.40;;
3149;SDS011;32503;47.748;8.960;2023-10-09T08:45:35;5.93;;;4.33;;
3149;SDS011;32503;47.748;8.960;2023-10-09T08:48:05;7.13;;;4.80;;
3149;SDS011;32503;47.748;8.960;2023-10-09T08:50:33;4.33;;;3.93;;
3149;SDS011;32503;47.748;8.960;2023-10-09T08:53:02;5.77;;;3.87;;
3149;SDS011;32503;47.748;8.960;2023-10-09T08:55:30;9.33;;;4.23;;
3149;SDS011;32503;47.748;8.960;2023-10-09T08:57:57;7.00;;;4.23;;
3149;SDS011;32503;47.748;8.960;2023-10-09T09:00:25;9.33;;;3.47;;
3149;SDS011;32503;47.748;8.960;2023-10-09T09:02:59;5.47;;;3.53;;
3149;SDS011;32503;47.748;8.960;2023-10-09T09:05:26;6.33;;;4.13;;
3149;SDS011;32503;47.748;8.960;2023-10-09T09:07:54;5.50;;;4.20;;
3149;SDS011;32503;47.748;8.960;2023-10-09T09:10:27;5.33;;;3.17;;
3149;SDS011;32503;47.748;8.960;2023-10-09T09:13:00;5.00;;;3.37;;
3149;SDS011;32503;47.748;8.960;2023-10-09T09:15:29;5.50;;;3.60;;
3149;SDS011;32503;47.748;8.960;2023-10-09T09:18:04;7.67;;;3.63;;
3149;SDS011;32503;47.748;8.960;2023-10-09T09:20:36;4.60;;;3.43;;
3149;SDS011;32503;47.748;8.960;2023-10-09T09:23:05;8.70;;;3.87;;
3149;SDS011;32503;47.748;8.960;2023-10-09T09:25:40;4.23;;;3.83;;
3149;SDS011;32503;47.748;8.960;2023-10-09T09:28:13;8.87;;;4.50;;
3149;SDS011;32503;47.748;8.960;2023-10-09T09:30:46;6.53;;;3.87;;
3149;SDS011;32503;47.748;8.960;2023-10-09T09:33:18;7.67;;;3.67;;
3149;SDS011;32503;47.748;8.960;2023-10-09T09:36:05;7.77;;;3.47;;
3149;SDS011;32503;47.748;8.960;2023-10-09T09:38:36;3.17;;;2.87;;
3149;SDS011;32503;47.748;8.960;2023-10-09T09:41:12;4.13;;;3.17;;
3149;SDS011;32503;47.748;8.960;2023-10-09T09:43:48;4.10;;;3.43;;
3149;SDS011;32503;47.748;8.960;2023-10-09T09:46:21;4.40;;;2.70;;
3149;SDS011;32503;47.748;8.960;2023-10-09T09:48:57;3.20;;;2.90;;
3149;SDS011;32503;47.748;8.960;2023-10-09T09:51:29;4.93;;;3.17;;
3149;SDS011;32503;47.748;8.960;2023-10-09T09:53:56;6.60;;;3.47;;
3149;SDS011;32503;47.748;8.960;2023-10-09T09:56:24;5.60;;;3.33;;
3149;SDS011;32503;47.748;8.960;2023-10-09T09:58:52;4.70;;;3.00;;
3149;SDS011;32503;47.748;8.960;2023-10-09T10:01:23;4.20;;;3.37;;
3149;SDS011;32503;47.748;8.960;2023-10-09T10:03:59;5.33;;;2.70;;
3149;SDS011;32503;47.748;8.960;2023-10-09T10:06:31;4.63;;;3.70;;
3149;SDS011;32503;47.748;8.960;2023-10-09T10:09:00;8.27;;;3.50;;
3149;SDS011;32503;47.748;8.960;2023-10-09T10:11:43;8.80;;;3.20;;
3149;SDS011;32503;47.748;8.960;2023-10-09T10:14:16;6.17;;;2.63;;
3149;SDS011;32503;47.748;8.960;2023-10-09T10:17:00;6.20;;;3.53;;
3149;SDS011;32503;47.748;8.960;2023-10-09T10:22:49;5.60;;;3.60;;
3149;SDS011;32503;47.748;8.960;2023-10-09T10:25:32;9.43;;;4.17;;
3149;SDS011;32503;47.748;8.960;2023-10-09T10:28:16;9.10;;;4.00;;
3149;SDS011;32503;47.748;8.960;2023-10-09T10:31:04;4.30;;;3.30;;
3149;SDS011;32503;47.748;8.960;2023-10-09T10:36:37;2.97;;;2.73;;
3149;SDS011;32503;47.748;8.960;2023-10-09T10:39:08;3.07;;;2.67;;
3149;SDS011;32503;47.748;8.960;2023-10-09T10:41:36;3.60;;;3.30;;
3149;SDS011;32503;47.748;8.960;2023-10-09T10:44:16;4.50;;;2.77;;
3149;SDS011;32503;47.748;8.960;2023-10-09T10:47:01;6.13;;;2.73;;
3149;SDS011;32503;47.748;8.960;2023-10-09T10:49:30;10.83;;;3.60;;
3149;SDS011;32503;47.748;8.960;2023-10-09T10:52:04;5.93;;;2.97;;
3149;SDS011;32503;47.748;8.960;2023-10-09T10:54:42;4.13;;;3.30;;
3149;SDS011;32503;47.748;8.960;2023-10-09T10:57:20;4.50;;;2.90;;
3149;SDS011;32503;47.748;8.960;2023-10-09T11:00:17;5.00;;;2.97;;
3149;SDS011;32503;47.748;8.960;2023-10-09T11:02:58;5.40;;;3.47;;
3149;SDS011;32503;47.748;8.960;2023-10-09T11:05:39;4.70;;;4.30;;
3149;SDS011;32503;47.748;8.960;2023-10-09T11:08:12;3.83;;;3.03;;
3149;SDS011;32503;47.748;8.960;2023-10-09T11:10:39;5.97;;;3.43;;
3149;SDS011;32503;47.748;8.960;2023-10-09T11:13:21;6.70;;;3.77;;
3149;SDS011;32503;47.748;8.960;2023-10-09T11:16:00;2.93;;;2.63;;
3149;SDS011;32503;47.748;8.960;2023-10-09T11:18:53;7.27;;;3.23;;
3149;SDS011;32503;47.748;8.960;2023-10-09T11:21:22;7.27;;;3.03;;
3149;SDS011;32503;47.748;8.960;2023-10-09T11:24:07;4.37;;;3.20;;
3149;SDS011;32503;47.748;8.960;2023-10-09T11:26:52;4.00;;;3.67;;
3149;SDS011;32503;47.748;8.960;2023-10-09T11:29:21;3.40;;;2.83;;
3149;SDS011;32503;47.748;8.960;2023-10-09T11:32:06;4.53;;;3.40;;
3149;SDS011;32503;47.748;8.960;2023-10-09T11:34:42;4.87;;;2.87;;
3149;SDS011;32503;47.748;8.960;2023-10-09T11:37:17;7.43;;;3.07;;
3149;SDS011;32503;47.748;8.960;2023-10-09T11:40:05;9.30;;;5.07;;
3149;SDS011;32503;47.748;8.960;2023-10-09T11:42:48;3.23;;;2.93;;
3149;SDS011;32503;47.748;8.960;2023-10-09T11:45:19;3.93;;;3.60;;
3149;SDS011;32503;47.748;8.960;2023-10-09T11:47:50;6.10;;;3.00;;
3149;SDS011;32503;47.748;8.960;2023-10-09T11:50:37;3.50;;;2.87;;
3149;SDS011;32503;47.748;8.960;2023-10-09T11:53:15;7.73;;;3.97;;
3149;SDS011;32503;47.748;8.960;2023-10-09T11:56:00;7.50;;;2.87;;
3149;SDS011;32503;47.748;8.960;2023-10-09T11:58:27;4.47;;;3.10;;
3149;SDS011;32503;47.748;8.960;2023-10-09T12:00:55;8.73;;;4.60;;
3149;SDS011;32503;47.748;8.960;2023-10-09T12:03:24;3.37;;;3.07;;
3149;SDS011;32503;47.748;8.960;2023-10-09T12:05:55;11.77;;;4.03;;
3149;SDS011;32503;47.748;8.960;2023-10-09T12:08:23;6.97;;;3.40;;
3149;SDS011;32503;47.748;8.960;2023-10-09T12:10:53;4.33;;;2.90;;
3149;SDS011;32503;47.748;8.960;2023-10-09T12:13:25;5.93;;;3.10;;
3149;SDS011;32503;47.748;8.960;2023-10-09T12:15:53;4.97;;;3.20;;
3149;SDS011;32503;47.748;8.960;2023-10-09T12:18:20;3.43;;;2.80;;
3149;SDS011;32503;47.748;8.960;2023-10-09T12:20:49;3.87;;;2.93;;
3149;SDS011;32503;47.748;8.960;2023-10-09T12:23:17;4.00;;;3.20;;
3149;SDS011;32503;47.748;8.960;2023-10-09T12:25:45;6.17;;;3.00;;
3149;SDS011;32503;47.748;8.960;2023-10-09T12:28:15;4.50;;;4.03;;
3149;SDS011;32503;47.748;8.960;2023-10-09T12:30:46;3.87;;;3.30;;
3149;SDS011;32503;47.748;8.960;2023-10-09T12:33:16;7.63;;;3.07;;
3149;SDS011;32503;47.748;8.960;2023-10-09T12:35:45;4.37;;;3.53;;
3149;SDS011;32503;47.748;8.960;2023-10-09T12:38:12;5.83;;;3.03;;
3149;SDS011;32503;47.748;8.960;2023-10-09T12:40:44;2.57;;;2.37;;
3149;SDS011;32503;47.748;8.960;2023-10-09T12:43:16;4.80;;;3.50;;
3149;SDS011;32503;47.748;8.960;2023-10-09T12:45:45;11.30;;;6.10;;
3149;SDS011;32503;47.748;8.960;2023-10-09T12:48:13;11.13;;;4.60;;
3149;SDS011;32503;47.748;8.960;2023-10-09T12:50:40;8.03;;;3.07;;
3149;SDS011;32503;47.748;8.960;2023-10-09T12:53:09;5.37;;;2.90;;
3149;SDS011;32503;47.748;8.960;2023-10-09T12:55:42;8.70;;;2.80;;
3149;SDS011;32503;47.748;8.960;2023-10-09T12:58:10;2.63;;;2.43;;
3149;SDS011;32503;47.748;8.960;2023-10-09T13:00:41;8.67;;;3.57;;
3149;SDS011;32503;47.748;8.960;2023-10-09T13:03:16;5.17;;;3.00;;
3149;SDS011;32503;47.748;8.960;2023-10-09T13:05:44;7.67;;;3.77;;
3149;SDS011;32503;47.748;8.960;2023-10-09T13:08:19;7.40;;;2.80;;
3149;SDS011;32503;47.748;8.960;2023-10-09T13:10:47;6.00;;;3.30;;
3149;SDS011;32503;47.748;8.960;2023-10-09T13:13:27;4.27;;;2.97;;
3149;SDS011;32503;47.748;8.960;2023-10-09T13:16:05;4.37;;;3.17;;
3149;SDS011;32503;47.748;8.960;2023-10-09T13:18:38;3.03;;;2.77;;
3149;SDS011;32503;47.748;8.960;2023-10-09T13:21:06;3.67;;;3.13;;
3149;SDS011;32503;47.748;8.960;2023-10-09T13:23:33;3.30;;;3.10;;
3149;SDS011;32503;47.748;8.960;2023-10-09T13:26:05;4.63;;;2.50;;
3149;SDS011;32503;47.748;8.960;2023-10-09T13:28:43;6.47;;;3.27;;
3149;SDS011;32503;47.748;8.960;2023-10-09T13:31:12;3.53;;;3.20;;
3149;SDS011;32503;47.748;8.960;2023-10-09T13:33:42;3.63;;;2.57;;
3149;SDS011;32503;47.748;8.960;2023-10-09T13:36:10;8.73;;;3.23;;
3149;SDS011;32503;47.748;8.960;2023-10-09T13:38:44;8.07;;;2.87;;
3149;SDS011;32503;47.748;8.960;2023-10-09T13:41:12;3.83;;;3.13;;
3149;SDS011;32503;47.748;8.960;2023-10-09T13:43:40;8.23;;;3.17;;
3149;SDS011;32503;47.748;8.960;2023-10-09T13:46:09;7.83;;;3.67;;
3149;SDS011;32503;47.748;8.960;2023-10-09T13:48:39;8.70;;;3.03;;
3149;SDS011;32503;47.748;8.960;2023-10-09T13:51:08;3.77;;;3.10;;
3149;SDS011;32503;47.748;8.960;2023-10-09T13:53:39;4.67;;;3.00;;
3149;SDS011;32503;47.748;8.960;2023-10-09T13:56:13;6.03;;;4.87;;
3149;SDS011;32503;47.748;8.960;2023-10-09T13:58:44;5.00;;;3.20;;
3149;SDS011;32503;47.748;8.960;2023-10-09T14:01:12;9.33;;;3.97;;
3149;SDS011;32503;47.748;8.960;2023-10-09T14:03:51;4.20;;;3.87;;
3149;SDS011;32503;47.748;8.960;2023-10-09T14:06:22;5.23;;;4.30;;
3149;SDS011;32503;47.748;8.960;2023-10-09T14:08:57;6.57;;;5.97;;
3149;SDS011;32503;47.748;8.960;2023-10-09T14:11:25;9.90;;;7.00;;
3149;SDS011;32503;47.748;8.960;2023-10-09T14:13:53;8.43;;;4.53;;
3149;SDS011;32503;47.748;8.960;2023-10-09T14:16:20;5.03;;;4.33;;
3149;SDS011;32503;47.748;8.960;2023-10-09T14:18:52;4.43;;;3.67;;
3149;SDS011;32503;47.748;8.960;2023-10-09T14:21:24;7.80;;;4.37;;
3149;SDS011;32503;47.748;8.960;2023-10-09T14:23:55;3.97;;;3.67;;
3149;SDS011;32503;47.748;8.960;2023-10-09T14:26:26;5.73;;;3.83;;
3149;SDS011;32503;47.748;8.960;2023-10-09T14:28:54;4.00;;;3.53;;
3149;SDS011;32503;47.748;8.960;2023-10-09T14:31:23;15.87;;;3.57;;
3149;SDS011;32503;47.748;8.960;2023-10-09T14:33:54;3.63;;;3.27;;
3149;SDS011;32503;47.748;8.960;2023-10-09T14:36:22;5.80;;;4.07;;
3149;SDS011;32503;47.748;8.960;2023-10-09T14:38:58;6.60;;;4.70;;
3149;SDS011;32503;47.748;8.960;2023-10-09T14:41:26;4.63;;;4.10;;
3149;SDS011;32503;47.748;8.960;2023-10-09T14:43:58;5.60;;;3.60;;
3149;SDS011;32503;47.748;8.960;2023-10-09T14:46:25;4.20;;;3.80;;
3149;SDS011;32503;47.748;8.960;2023-10-09T14:48:53;5.40;;;3.33;;
3149;SDS011;32503;47.748;8.960;2023-10-09T14:51:21;4.70;;;3.60;;
3149;SDS011;32503;47.748;8.960;2023-10-09T14:53:53;3.97;;;3.20;;
3149;SDS011;32503;47.748;8.960;2023-10-09T14:56:23;5.00;;;2.93;;
3149;SDS011;32503;47.748;8.960;2023-10-09T14:58:55;3.70;;;3.40;;
3149;SDS011;32503;47.748;8.960;2023-10-09T15:01:23;4.00;;;3.13;;
3149;SDS011;32503;47.748;8.960;2023-10-09T15:03:53;5.40;;;3.90;;
3149;SDS011;32503;47.748;8.960;2023-10-09T15:06:25;5.40;;;2.90;;
3149;SDS011;32503;47.748;8.960;2023-10-09T15:08:55;2.77;;;2.57;;
3149;SDS011;32503;47.748;8.960;2023-10-09T15:11:23;7.17;;;3.17;;
3149;SDS011;32503;47.748;8.960;2023-10-09T15:13:53;4.60;;;3.23;;
3149;SDS011;32503;47.748;8.960;2023-10-09T15:16:22;4.37;;;3.30;;
3149;SDS011;32503;47.748;8.960;2023-10-09T15:18:51;3.37;;;3.07;;
3149;SDS011;32503;47.748;8.960;2023-10-09T15:21:22;5.43;;;3.20;;
3149;SDS011;32503;47.748;8.960;2023-10-09T15:23:53;5.43;;;3.13;;
3149;SDS011;32503;47.748;8.960;2023-10-09T15:26:20;4.57;;;4.23;;
3149;SDS011;32503;47.748;8.960;2023-10-09T15:28:49;10.37;;;5.63;;
3149;SDS011;32503;47.748;8.960;2023-10-09T15:31:17;6.20;;;3.67;;
3149;SDS011;32503;47.748;8.960;2023-10-09T15:33:46;9.67;;;4.50;;
3149;SDS011;32503;47.748;8.960;2023-10-09T15:36:17;5.70;;;4.30;;
3149;SDS011;32503;47.748;8.960;2023-10-09T15:38:45;7.37;;;3.90;;
3149;SDS011;32503;47.748;8.960;2023-10-09T15:41:14;5.17;;;4.10;;
3149;SDS011;32503;47.748;8.960;2023-10-09T15:43:41;8.80;;;5.03;;
3149;SDS011;32503;47.748;8.960;2023-10-09T15:46:10;5.03;;;4.57;;
3149;SDS011;32503;47.748;8.960;2023-10-09T15:48:40;5.17;;;4.70;;
3149;SDS011;32503;47.748;8.960;2023-10-09T15:51:10;6.13;;;4.80;;